Morning Lady — 3FKC3 — position and weather

sailwx.info

Track history (hours):
 
Tides and Currents Weather Stations Pressure Air Temp Water Temp Dewpoint Dewpoint Depression Visibility Wind Speed Wind Dir Waves Ship Positions

Morning Lady

Last reported at 2017-Jan-19 04:11 UTC. Time now 2017-Jan-19 12:56 UTC.
Position N 57°43' E 009°32'.

Length 234 m; draft 8.6 m.

Type: Ship. MMSI: 356473000.

Date/timePositionNaut miles runAvg speedWind from/ knotsBaromVisibWave heightAir tempDewpointWater temp
2017-Jan-19 04:11N 57°43' E 009°32'1116.3
2017-Jan-19 03:29N 57°47' E 009°51'1516.3
2017-Jan-19 02:33N 57°53' E 010°18'1616.0
2017-Jan-19 01:33N 57°51' E 010°48'1615.9
2017-Jan-19 00:34N 57°51' E 011°18'1110.5
2017-Jan-18 23:33N 57°55' E 011°35'7 6.6
2017-Jan-18 22:33N 58°01' E 011°42'0 0.0
2017-Jan-18 21:23N 58°01' E 011°42'0 0.0
2017-Jan-18 20:26N 58°01' E 011°42'0 0.0
2017-Jan-18 19:20N 58°01' E 011°42'0 0.0
2017-Jan-18 18:29N 58°01' E 011°42'0 0.0
2017-Jan-18 17:26N 58°01' E 011°42'0 0.0
2017-Jan-18 16:14N 58°01' E 011°42'0 0.0
2017-Jan-18 15:20N 58°01' E 011°42'0 0.0
2017-Jan-18 13:17N 58°01' E 011°42'0 0.0
2017-Jan-18 12:29N 58°01' E 011°42'0 0.0
2017-Jan-18 11:32N 58°01' E 011°42'0 0.0
2017-Jan-18 09:32N 58°01' E 011°42'0 0.0
2017-Jan-18 08:32N 58°01' E 011°42'0 0.0
2017-Jan-18 06:17N 58°01' E 011°42'0 0.0
2017-Jan-18 05:26N 58°01' E 011°42'0 0.0
2017-Jan-18 04:29N 58°01' E 011°42'0 0.0
2017-Jan-18 03:32N 58°01' E 011°42'0 0.0
2017-Jan-18 02:33N 58°01' E 011°42'5 4.9
2017-Jan-18 01:33N 57°56' E 011°41'1010.1
2017-Jan-18 00:33N 57°50' E 011°25'9 9.4
2017-Jan-17 23:33N 57°51' E 011°07'1615.5
2017-Jan-17 22:34N 57°51' E 010°38'19416.1
2017-Jan-17 10:29N 55°33' E 006°30'9314.5
2017-Jan-17 04:06N 54°12' E 005°12'4913.9
2017-Jan-17 00:33N 53°26' E 004°42'1313.6
2017-Jan-16 23:33N 53°13' E 004°33'1413.7
2017-Jan-16 22:33N 53°01' E 004°22'1413.8
2017-Jan-16 21:33N 52°49' E 004°12'1414.2
2017-Jan-16 20:33N 52°38' E 003°58'1514.5
2017-Jan-16 19:33N 52°24' E 003°52'1514.8
2017-Jan-16 18:33N 52°09' E 003°54'1312.8
2017-Jan-16 17:33N 51°58' E 004°06'6 6.4
2017-Jan-16 16:33N 51°54' E 004°14'1 0.8
2017-Jan-16 15:31N 51°54' E 004°15'0 0.0
2017-Jan-16 14:31N 51°54' E 004°15'0 0.0
2017-Jan-16 13:31N 51°54' E 004°15'0 0.0
2017-Jan-16 12:31N 51°54' E 004°15'0 0.0
2017-Jan-16 11:31N 51°54' E 004°15'0 0.0
2017-Jan-16 10:31N 51°54' E 004°15'0 0.0
2017-Jan-16 09:31N 51°54' E 004°15'0 0.0
2017-Jan-16 08:31N 51°54' E 004°15'0 0.0
2017-Jan-16 07:31N 51°54' E 004°15'0 0.0
2017-Jan-16 06:31N 51°54' E 004°15'0 0.0
2017-Jan-16 05:31N 51°54' E 004°15'0 0.0
2017-Jan-16 04:31N 51°54' E 004°15'0 0.0
2017-Jan-16 03:31N 51°54' E 004°15'0 0.0
2017-Jan-16 02:31N 51°54' E 004°15'0 0.0
2017-Jan-16 01:31N 51°54' E 004°15'0 0.0
2017-Jan-16 00:31N 51°54' E 004°15'0 0.0
2017-Jan-15 23:31N 51°54' E 004°15'0 0.0
2017-Jan-15 22:31N 51°54' E 004°15'0 0.0
2017-Jan-15 21:31N 51°54' E 004°15'0 0.0
2017-Jan-15 20:31N 51°54' E 004°15'0 0.0
2017-Jan-15 19:31N 51°54' E 004°15'0 0.0
2017-Jan-15 18:31N 51°54' E 004°15'0 0.0
2017-Jan-15 17:31N 51°54' E 004°15'0 0.0
2017-Jan-15 16:31N 51°54' E 004°15'0 0.0
2017-Jan-15 15:31N 51°54' E 004°15'0 0.0
2017-Jan-15 14:31N 51°54' E 004°15'0 0.0
2017-Jan-15 13:31N 51°54' E 004°15'0 0.0
2017-Jan-15 12:33N 51°54' E 004°15'2 1.9
2017-Jan-15 11:33N 51°55' E 004°13'9 9.0
2017-Jan-15 10:33N 51°60' E 004°00'1010.1
2017-Jan-15 09:33N 51°59' E 003°44'8 8.4
2017-Jan-15 08:33N 51°57' E 003°31'4210.0
2017-Jan-15 04:21N 51°39' E 002°30'1215.1
2017-Jan-15 03:34N 51°30' E 002°16'1515.1
2017-Jan-15 02:33N 51°20' E 001°58'1615.6
2017-Jan-15 01:33N 51°08' E 001°43'1615.5
2017-Jan-15 00:33N 50°56' E 001°27'5413.4
2017-Jan-14 20:33N 50°23' E 000°20'1414.6
2017-Jan-14 19:33N 50°20' W 000°02'1414.4
2017-Jan-14 18:33N 50°20' W 000°24'1414.1
2017-Jan-14 17:32N 50°30' W 000°42'1313.3
2017-Jan-14 16:34N 50°36' W 000°59'4 3.9
2017-Jan-14 15:33N 50°38' W 001°05'0 0.1
2017-Jan-14 14:31N 50°38' W 001°05'0 0.0
2017-Jan-14 13:31N 50°38' W 001°05'0 0.2
2017-Jan-14 12:31N 50°38' W 001°04'0 0.0
2017-Jan-14 11:31N 50°38' W 001°04'0 0.0
2017-Jan-14 10:31N 50°38' W 001°04'0 0.0
2017-Jan-14 09:31N 50°38' W 001°04'0 0.0
2017-Jan-14 08:31N 50°38' W 001°04'4 4.1
2017-Jan-14 07:33N 50°35' W 000°59'8 2.0
2017-Jan-14 03:34N 50°28' W 001°04'15 3.7
2017-Jan-13 23:33N 50°30' W 000°41'3 2.8
2017-Jan-13 22:33N 50°30' W 000°46'4 3.8
2017-Jan-13 21:32N 50°30' W 000°52'4 4.0
2017-Jan-13 20:33N 50°31' W 000°58'5 4.4
2017-Jan-13 19:30N 50°27' W 000°54'5 0.7
2017-Jan-13 13:17N 50°29' W 001°00'1 1.4
2017-Jan-13 12:34N 50°30' W 000°59'4 4.5
2017-Jan-13 11:33N 50°35' W 000°56'8 7.6
2017-Jan-13 10:34N 50°34' W 000°45'6 6.4
2017-Jan-13 09:34N 50°33' W 000°34'6 6.4
2017-Jan-13 08:33N 50°33' W 000°24'8 8.2
2017-Jan-13 07:33N 50°32' W 000°11'9 9.5
2017-Jan-13 06:33N 50°32' E 000°03'1414.5
2017-Jan-13 05:33N 50°36' E 000°25'1615.8
2017-Jan-13 04:33N 50°43' E 000°47'1615.2
2017-Jan-13 03:29N 50°52' E 001°09'1313.7
2017-Jan-13 02:33N 50°60' E 001°25'1212.1
2017-Jan-13 01:33N 51°08' E 001°39'1111.5
2017-Jan-13 00:33N 51°17' E 001°51'1312.9
2017-Jan-12 23:34N 51°29' E 001°59'9 9.2
2017-Jan-12 22:33N 51°38' E 002°02'10 9.8
2017-Jan-12 21:33N 51°33' E 001°49'8 7.7
2017-Jan-12 20:33N 51°32' E 001°37'1111.5
2017-Jan-12 19:34N 51°42' E 001°44'1010.1
2017-Jan-12 18:33N 51°50' E 001°34'1514.5
2017-Jan-12 17:33N 51°38' E 001°21'1717.4
2017-Jan-12 16:33N 51°29' E 000°57'1717.4
2017-Jan-12 15:34N 51°30' E 000°30'6 5.8
2017-Jan-12 14:34N 51°27' E 000°22'0 0.0
2017-Jan-12 13:34N 51°27' E 000°22'0 0.0
2017-Jan-12 12:34N 51°27' E 000°22'0 0.0
2017-Jan-12 11:34N 51°27' E 000°22'0 0.0
2017-Jan-12 10:34N 51°27' E 000°22'0 0.0
2017-Jan-12 09:34N 51°27' E 000°22'0 0.0
2017-Jan-12 08:34N 51°27' E 000°22'0 0.0
2017-Jan-12 07:34N 51°27' E 000°22'0 0.0
2017-Jan-12 06:34N 51°27' E 000°22'0 0.0
2017-Jan-12 05:34N 51°27' E 000°22'0 0.0
2017-Jan-12 04:34N 51°27' E 000°22'0 0.0
2017-Jan-12 03:34N 51°27' E 000°22'0 0.0
2017-Jan-12 02:34N 51°27' E 000°22'0 0.0
2017-Jan-12 01:34N 51°27' E 000°22'0 0.0
2017-Jan-12 00:34N 51°27' E 000°22'0 0.0
2017-Jan-11 23:34N 51°27' E 000°22'0 0.0
2017-Jan-11 22:34N 51°27' E 000°22'0 0.0
2017-Jan-11 21:34N 51°27' E 000°22'0 0.0
2017-Jan-11 20:34N 51°27' E 000°22'0 0.0
2017-Jan-11 19:34N 51°27' E 000°22'0 0.0
2017-Jan-11 18:34N 51°27' E 000°22'0 0.0
2017-Jan-11 17:34N 51°27' E 000°22'0 0.0
2017-Jan-11 16:34N 51°27' E 000°22'0 0.0
2017-Jan-11 15:34N 51°27' E 000°22'0 0.0
2017-Jan-11 14:34N 51°27' E 000°22'0 0.0
2017-Jan-11 13:34N 51°27' E 000°22'0 0.0
2017-Jan-11 12:34N 51°27' E 000°22'0 0.0
2017-Jan-11 11:34N 51°27' E 000°22'0 0.0
2017-Jan-11 10:34N 51°27' E 000°22'4 4.2
2017-Jan-11 09:33N 51°29' E 000°27'9 9.4
2017-Jan-11 08:33N 51°30' E 000°42'1515.0
2017-Jan-11 07:34N 51°30' E 001°07'1111.1
2017-Jan-11 06:33N 51°29' E 001°24'5 4.6
2017-Jan-11 05:34N 51°27' E 001°31'3 3.2
2017-Jan-11 04:33N 51°31' E 001°32'0 0.0
2017-Jan-11 03:33N 51°31' E 001°32'0 0.0
2017-Jan-11 02:33N 51°31' E 001°32'3 2.9
2017-Jan-11 01:34N 51°28' E 001°32'1615.7
2017-Jan-11 00:34N 51°13' E 001°38'1414.0
2017-Jan-10 23:33N 50°59' E 001°31'6415.3
2017-Jan-10 19:21N 50°20' E 000°11'1317.0
2017-Jan-10 18:33N 50°18' W 000°10'1917.2
2017-Jan-10 17:27N 50°11' W 000°38'1517.0
2017-Jan-10 16:33N 50°07' W 001°01'1615.9
2017-Jan-10 15:33N 50°02' W 001°24'1414.5
2017-Jan-10 14:33N 49°60' W 001°47'1313.1
2017-Jan-10 13:33N 49°58' W 002°07'12514.8
2017-Jan-10 05:05N 49°01' W 004°59'816.0
2017-Jan-10 04:33N 48°57' W 005°10'1616.4
2017-Jan-10 03:33N 48°49' W 005°32'  
Track history (hours):
 
Tides and Currents Weather Stations Pressure Air Temp Water Temp Dewpoint Dewpoint Depression Visibility Wind Speed Wind Dir Waves Ship Positions

Morning Lady

Last reported at 2017-Jan-19 04:11 UTC. Time now 2017-Jan-19 12:56 UTC.
Position N 57°43' E 009°32'.

Length 234 m; draft 8.6 m.

Type: Ship. MMSI: 356473000.

Date/timePositionNaut miles runAvg speedWind from/ knotsBaromVisibWave heightAir tempDewpointWater temp
2017-Jan-19 04:11N 57°43' E 009°32'1116.3
2017-Jan-19 03:29N 57°47' E 009°51'1516.3
2017-Jan-19 02:33N 57°53' E 010°18'1616.0
2017-Jan-19 01:33N 57°51' E 010°48'1615.9
2017-Jan-19 00:34N 57°51' E 011°18'1110.5
2017-Jan-18 23:33N 57°55' E 011°35'7 6.6
2017-Jan-18 22:33N 58°01' E 011°42'0 0.0
2017-Jan-18 21:23N 58°01' E 011°42'0 0.0
2017-Jan-18 20:26N 58°01' E 011°42'0 0.0
2017-Jan-18 19:20N 58°01' E 011°42'0 0.0
2017-Jan-18 18:29N 58°01' E 011°42'0 0.0
2017-Jan-18 17:26N 58°01' E 011°42'0 0.0
2017-Jan-18 16:14N 58°01' E 011°42'0 0.0
2017-Jan-18 15:20N 58°01' E 011°42'0 0.0
2017-Jan-18 13:17N 58°01' E 011°42'0 0.0
2017-Jan-18 12:29N 58°01' E 011°42'0 0.0
2017-Jan-18 11:32N 58°01' E 011°42'0 0.0
2017-Jan-18 09:32N 58°01' E 011°42'0 0.0
2017-Jan-18 08:32N 58°01' E 011°42'0 0.0
2017-Jan-18 06:17N 58°01' E 011°42'0 0.0
2017-Jan-18 05:26N 58°01' E 011°42'0 0.0
2017-Jan-18 04:29N 58°01' E 011°42'0 0.0
2017-Jan-18 03:32N 58°01' E 011°42'0 0.0
2017-Jan-18 02:33N 58°01' E 011°42'5 4.9
2017-Jan-18 01:33N 57°56' E 011°41'1010.1
2017-Jan-18 00:33N 57°50' E 011°25'9 9.4
2017-Jan-17 23:33N 57°51' E 011°07'1615.5
2017-Jan-17 22:34N 57°51' E 010°38'19416.1
2017-Jan-17 10:29N 55°33' E 006°30'9314.5
2017-Jan-17 04:06N 54°12' E 005°12'4913.9
2017-Jan-17 00:33N 53°26' E 004°42'1313.6
2017-Jan-16 23:33N 53°13' E 004°33'1413.7
2017-Jan-16 22:33N 53°01' E 004°22'1413.8
2017-Jan-16 21:33N 52°49' E 004°12'1414.2
2017-Jan-16 20:33N 52°38' E 003°58'1514.5
2017-Jan-16 19:33N 52°24' E 003°52'1514.8
2017-Jan-16 18:33N 52°09' E 003°54'1312.8
2017-Jan-16 17:33N 51°58' E 004°06'6 6.4
2017-Jan-16 16:33N 51°54' E 004°14'1 0.8
2017-Jan-16 15:31N 51°54' E 004°15'0 0.0
2017-Jan-16 14:31N 51°54' E 004°15'0 0.0
2017-Jan-16 13:31N 51°54' E 004°15'0 0.0
2017-Jan-16 12:31N 51°54' E 004°15'0 0.0
2017-Jan-16 11:31N 51°54' E 004°15'0 0.0
2017-Jan-16 10:31N 51°54' E 004°15'0 0.0
2017-Jan-16 09:31N 51°54' E 004°15'0 0.0
2017-Jan-16 08:31N 51°54' E 004°15'0 0.0
2017-Jan-16 07:31N 51°54' E 004°15'0 0.0
2017-Jan-16 06:31N 51°54' E 004°15'0 0.0
2017-Jan-16 05:31N 51°54' E 004°15'0 0.0
2017-Jan-16 04:31N 51°54' E 004°15'0 0.0
2017-Jan-16 03:31N 51°54' E 004°15'0 0.0
2017-Jan-16 02:31N 51°54' E 004°15'0 0.0
2017-Jan-16 01:31N 51°54' E 004°15'0 0.0
2017-Jan-16 00:31N 51°54' E 004°15'0 0.0
2017-Jan-15 23:31N 51°54' E 004°15'0 0.0
2017-Jan-15 22:31N 51°54' E 004°15'0 0.0
2017-Jan-15 21:31N 51°54' E 004°15'0 0.0
2017-Jan-15 20:31N 51°54' E 004°15'0 0.0
2017-Jan-15 19:31N 51°54' E 004°15'0 0.0
2017-Jan-15 18:31N 51°54' E 004°15'0 0.0
2017-Jan-15 17:31N 51°54' E 004°15'0 0.0
2017-Jan-15 16:31N 51°54' E 004°15'0 0.0
2017-Jan-15 15:31N 51°54' E 004°15'0 0.0
2017-Jan-15 14:31N 51°54' E 004°15'0 0.0
2017-Jan-15 13:31N 51°54' E 004°15'0 0.0
2017-Jan-15 12:33N 51°54' E 004°15'2 1.9
2017-Jan-15 11:33N 51°55' E 004°13'9 9.0
2017-Jan-15 10:33N 51°60' E 004°00'1010.1
2017-Jan-15 09:33N 51°59' E 003°44'8 8.4
2017-Jan-15 08:33N 51°57' E 003°31'4210.0
2017-Jan-15 04:21N 51°39' E 002°30'1215.1
2017-Jan-15 03:34N 51°30' E 002°16'1515.1
2017-Jan-15 02:33N 51°20' E 001°58'1615.6
2017-Jan-15 01:33N 51°08' E 001°43'1615.5
2017-Jan-15 00:33N 50°56' E 001°27'5413.4
2017-Jan-14 20:33N 50°23' E 000°20'1414.6
2017-Jan-14 19:33N 50°20' W 000°02'1414.4
2017-Jan-14 18:33N 50°20' W 000°24'1414.1
2017-Jan-14 17:32N 50°30' W 000°42'1313.3
2017-Jan-14 16:34N 50°36' W 000°59'4 3.9
2017-Jan-14 15:33N 50°38' W 001°05'0 0.1
2017-Jan-14 14:31N 50°38' W 001°05'0 0.0
2017-Jan-14 13:31N 50°38' W 001°05'0 0.2
2017-Jan-14 12:31N 50°38' W 001°04'0 0.0
2017-Jan-14 11:31N 50°38' W 001°04'0 0.0
2017-Jan-14 10:31N 50°38' W 001°04'0 0.0
2017-Jan-14 09:31N 50°38' W 001°04'0 0.0
2017-Jan-14 08:31N 50°38' W 001°04'4 4.1
2017-Jan-14 07:33N 50°35' W 000°59'8 2.0
2017-Jan-14 03:34N 50°28' W 001°04'15 3.7
2017-Jan-13 23:33N 50°30' W 000°41'3 2.8
2017-Jan-13 22:33N 50°30' W 000°46'4 3.8
2017-Jan-13 21:32N 50°30' W 000°52'4 4.0
2017-Jan-13 20:33N 50°31' W 000°58'5 4.4
2017-Jan-13 19:30N 50°27' W 000°54'5 0.7
2017-Jan-13 13:17N 50°29' W 001°00'1 1.4
2017-Jan-13 12:34N 50°30' W 000°59'4 4.5
2017-Jan-13 11:33N 50°35' W 000°56'8 7.6
2017-Jan-13 10:34N 50°34' W 000°45'6 6.4
2017-Jan-13 09:34N 50°33' W 000°34'6 6.4
2017-Jan-13 08:33N 50°33' W 000°24'8 8.2
2017-Jan-13 07:33N 50°32' W 000°11'9 9.5
2017-Jan-13 06:33N 50°32' E 000°03'1414.5
2017-Jan-13 05:33N 50°36' E 000°25'1615.8
2017-Jan-13 04:33N 50°43' E 000°47'1615.2
2017-Jan-13 03:29N 50°52' E 001°09'1313.7
2017-Jan-13 02:33N 50°60' E 001°25'1212.1
2017-Jan-13 01:33N 51°08' E 001°39'1111.5
2017-Jan-13 00:33N 51°17' E 001°51'1312.9
2017-Jan-12 23:34N 51°29' E 001°59'9 9.2
2017-Jan-12 22:33N 51°38' E 002°02'10 9.8
2017-Jan-12 21:33N 51°33' E 001°49'8 7.7
2017-Jan-12 20:33N 51°32' E 001°37'1111.5
2017-Jan-12 19:34N 51°42' E 001°44'1010.1
2017-Jan-12 18:33N 51°50' E 001°34'1514.5
2017-Jan-12 17:33N 51°38' E 001°21'1717.4
2017-Jan-12 16:33N 51°29' E 000°57'1717.4
2017-Jan-12 15:34N 51°30' E 000°30'6 5.8
2017-Jan-12 14:34N 51°27' E 000°22'0 0.0
2017-Jan-12 13:34N 51°27' E 000°22'0 0.0
2017-Jan-12 12:34N 51°27' E 000°22'0 0.0
2017-Jan-12 11:34N 51°27' E 000°22'0 0.0
2017-Jan-12 10:34N 51°27' E 000°22'0 0.0
2017-Jan-12 09:34N 51°27' E 000°22'0 0.0
2017-Jan-12 08:34N 51°27' E 000°22'0 0.0
2017-Jan-12 07:34N 51°27' E 000°22'0 0.0
2017-Jan-12 06:34N 51°27' E 000°22'0 0.0
2017-Jan-12 05:34N 51°27' E 000°22'0 0.0
2017-Jan-12 04:34N 51°27' E 000°22'0 0.0
2017-Jan-12 03:34N 51°27' E 000°22'0 0.0
2017-Jan-12 02:34N 51°27' E 000°22'0 0.0
2017-Jan-12 01:34N 51°27' E 000°22'0 0.0
2017-Jan-12 00:34N 51°27' E 000°22'0 0.0
2017-Jan-11 23:34N 51°27' E 000°22'0 0.0
2017-Jan-11 22:34N 51°27' E 000°22'0 0.0
2017-Jan-11 21:34N 51°27' E 000°22'0 0.0
2017-Jan-11 20:34N 51°27' E 000°22'0 0.0
2017-Jan-11 19:34N 51°27' E 000°22'0 0.0
2017-Jan-11 18:34N 51°27' E 000°22'0 0.0
2017-Jan-11 17:34N 51°27' E 000°22'0 0.0
2017-Jan-11 16:34N 51°27' E 000°22'0 0.0
2017-Jan-11 15:34N 51°27' E 000°22'0 0.0
2017-Jan-11 14:34N 51°27' E 000°22'0 0.0
2017-Jan-11 13:34N 51°27' E 000°22'0 0.0
2017-Jan-11 12:34N 51°27' E 000°22'0 0.0
2017-Jan-11 11:34N 51°27' E 000°22'0 0.0
2017-Jan-11 10:34N 51°27' E 000°22'4 4.2
2017-Jan-11 09:33N 51°29' E 000°27'9 9.4
2017-Jan-11 08:33N 51°30' E 000°42'1515.0
2017-Jan-11 07:34N 51°30' E 001°07'1111.1
2017-Jan-11 06:33N 51°29' E 001°24'5 4.6
2017-Jan-11 05:34N 51°27' E 001°31'3 3.2
2017-Jan-11 04:33N 51°31' E 001°32'0 0.0
2017-Jan-11 03:33N 51°31' E 001°32'0 0.0
2017-Jan-11 02:33N 51°31' E 001°32'3 2.9
2017-Jan-11 01:34N 51°28' E 001°32'1615.7
2017-Jan-11 00:34N 51°13' E 001°38'1414.0
2017-Jan-10 23:33N 50°59' E 001°31'6415.3
2017-Jan-10 19:21N 50°20' E 000°11'1317.0
2017-Jan-10 18:33N 50°18' W 000°10'1917.2
2017-Jan-10 17:27N 50°11' W 000°38'1517.0
2017-Jan-10 16:33N 50°07' W 001°01'1615.9
2017-Jan-10 15:33N 50°02' W 001°24'1414.5
2017-Jan-10 14:33N 49°60' W 001°47'1313.1
2017-Jan-10 13:33N 49°58' W 002°07'12514.8
2017-Jan-10 05:05N 49°01' W 004°59'816.0
2017-Jan-10 04:33N 48°57' W 005°10'1616.4
2017-Jan-10 03:33N 48°49' W 005°32'  

Dump ship's entire track history